sensor_id;sensor_type;location;lat;lon;timestamp;P1;durP1;ratioP1;P2;durP2;ratioP2
67065;SDS011;53978;43.846;25.952;2022-08-21T00:00:23;8.43;;;3.50;;
67065;SDS011;53978;43.846;25.952;2022-08-21T00:02:52;9.02;;;3.30;;
67065;SDS011;53978;43.846;25.952;2022-08-21T00:05:21;6.20;;;3.35;;
67065;SDS011;53978;43.846;25.952;2022-08-21T00:07:47;5.15;;;3.58;;
67065;SDS011;53978;43.846;25.952;2022-08-21T00:10:12;5.82;;;3.47;;
67065;SDS011;53978;43.846;25.952;2022-08-21T00:12:38;9.68;;;3.30;;
67065;SDS011;53978;43.846;25.952;2022-08-21T00:15:05;8.70;;;3.97;;
67065;SDS011;53978;43.846;25.952;2022-08-21T00:17:34;10.52;;;4.00;;
67065;SDS011;53978;43.846;25.952;2022-08-21T00:20:01;8.65;;;3.70;;
67065;SDS011;53978;43.846;25.952;2022-08-21T00:22:28;6.25;;;4.05;;
67065;SDS011;53978;43.846;25.952;2022-08-21T00:24:54;8.05;;;3.85;;
67065;SDS011;53978;43.846;25.952;2022-08-21T00:27:19;9.60;;;4.03;;
67065;SDS011;53978;43.846;25.952;2022-08-21T00:29:45;9.57;;;4.15;;
67065;SDS011;53978;43.846;25.952;2022-08-21T00:32:10;7.53;;;4.10;;
67065;SDS011;53978;43.846;25.952;2022-08-21T00:34:35;10.02;;;4.10;;
67065;SDS011;53978;43.846;25.952;2022-08-21T00:37:01;9.63;;;4.30;;
67065;SDS011;53978;43.846;25.952;2022-08-21T00:39:26;11.07;;;4.75;;
67065;SDS011;53978;43.846;25.952;2022-08-21T00:41:52;7.53;;;4.00;;
67065;SDS011;53978;43.846;25.952;2022-08-21T00:44:17;8.98;;;4.47;;
67065;SDS011;53978;43.846;25.952;2022-08-21T00:46:43;8.63;;;4.40;;
67065;SDS011;53978;43.846;25.952;2022-08-21T00:49:10;9.10;;;4.60;;
67065;SDS011;53978;43.846;25.952;2022-08-21T00:51:45;8.30;;;4.15;;
67065;SDS011;53978;43.846;25.952;2022-08-21T00:54:13;8.40;;;4.43;;
67065;SDS011;53978;43.846;25.952;2022-08-21T00:56:40;14.57;;;4.30;;
67065;SDS011;53978;43.846;25.952;2022-08-21T00:59:06;9.60;;;4.50;;
67065;SDS011;53978;43.846;25.952;2022-08-21T01:01:32;9.52;;;4.80;;
67065;SDS011;53978;43.846;25.952;2022-08-21T01:03:57;5.28;;;4.10;;
67065;SDS011;53978;43.846;25.952;2022-08-21T01:06:23;10.27;;;4.88;;
67065;SDS011;53978;43.846;25.952;2022-08-21T01:08:49;9.32;;;5.00;;
67065;SDS011;53978;43.846;25.952;2022-08-21T01:11:15;5.80;;;4.53;;
67065;SDS011;53978;43.846;25.952;2022-08-21T01:13:41;8.68;;;4.35;;
67065;SDS011;53978;43.846;25.952;2022-08-21T01:16:11;7.30;;;4.50;;
67065;SDS011;53978;43.846;25.952;2022-08-21T01:18:39;6.72;;;4.45;;
67065;SDS011;53978;43.846;25.952;2022-08-21T01:23:35;8.95;;;4.53;;
67065;SDS011;53978;43.846;25.952;2022-08-21T01:26:02;8.25;;;4.25;;
67065;SDS011;53978;43.846;25.952;2022-08-21T01:28:28;11.52;;;4.78;;
67065;SDS011;53978;43.846;25.952;2022-08-21T01:30:56;9.15;;;4.70;;
67065;SDS011;53978;43.846;25.952;2022-08-21T01:33:22;7.97;;;4.60;;
67065;SDS011;53978;43.846;25.952;2022-08-21T01:35:49;9.02;;;4.63;;
67065;SDS011;53978;43.846;25.952;2022-08-21T01:38:15;8.02;;;5.10;;
67065;SDS011;53978;43.846;25.952;2022-08-21T01:40:40;7.15;;;4.78;;
67065;SDS011;53978;43.846;25.952;2022-08-21T01:43:06;8.18;;;4.85;;
67065;SDS011;53978;43.846;25.952;2022-08-21T01:45:31;10.07;;;5.00;;
67065;SDS011;53978;43.846;25.952;2022-08-21T01:47:57;8.43;;;4.97;;
67065;SDS011;53978;43.846;25.952;2022-08-21T01:50:22;13.95;;;5.72;;
67065;SDS011;53978;43.846;25.952;2022-08-21T01:52:48;8.18;;;5.03;;
67065;SDS011;53978;43.846;25.952;2022-08-21T01:55:15;9.25;;;4.90;;
67065;SDS011;53978;43.846;25.952;2022-08-21T01:57:41;9.13;;;4.72;;
67065;SDS011;53978;43.846;25.952;2022-08-21T02:00:08;8.77;;;5.22;;
67065;SDS011;53978;43.846;25.952;2022-08-21T02:02:35;7.93;;;4.80;;
67065;SDS011;53978;43.846;25.952;2022-08-21T02:05:01;6.63;;;4.75;;
67065;SDS011;53978;43.846;25.952;2022-08-21T02:07:34;8.38;;;4.72;;
67065;SDS011;53978;43.846;25.952;2022-08-21T02:10:14;11.05;;;4.88;;
67065;SDS011;53978;43.846;25.952;2022-08-21T02:12:41;9.38;;;4.97;;
67065;SDS011;53978;43.846;25.952;2022-08-21T02:15:07;10.48;;;5.03;;
67065;SDS011;53978;43.846;25.952;2022-08-21T02:17:53;7.85;;;4.72;;
67065;SDS011;53978;43.846;25.952;2022-08-21T02:20:31;8.32;;;4.90;;
67065;SDS011;53978;43.846;25.952;2022-08-21T02:23:04;7.90;;;5.30;;
67065;SDS011;53978;43.846;25.952;2022-08-21T02:25:31;9.38;;;5.57;;
67065;SDS011;53978;43.846;25.952;2022-08-21T02:27:57;13.07;;;5.10;;
67065;SDS011;53978;43.846;25.952;2022-08-21T02:30:24;10.30;;;5.50;;
67065;SDS011;53978;43.846;25.952;2022-08-21T02:32:54;9.15;;;5.13;;
67065;SDS011;53978;43.846;25.952;2022-08-21T02:35:20;9.38;;;5.28;;
67065;SDS011;53978;43.846;25.952;2022-08-21T02:38:00;8.32;;;4.82;;
67065;SDS011;53978;43.846;25.952;2022-08-21T02:40:34;9.10;;;4.60;;
67065;SDS011;53978;43.846;25.952;2022-08-21T02:43:01;6.88;;;4.75;;
67065;SDS011;53978;43.846;25.952;2022-08-21T02:45:28;11.27;;;5.55;;
67065;SDS011;53978;43.846;25.952;2022-08-21T02:47:55;9.93;;;5.35;;
67065;SDS011;53978;43.846;25.952;2022-08-21T02:50:25;6.55;;;5.00;;
67065;SDS011;53978;43.846;25.952;2022-08-21T02:52:52;7.72;;;5.50;;
67065;SDS011;53978;43.846;25.952;2022-08-21T02:55:19;8.70;;;5.10;;
67065;SDS011;53978;43.846;25.952;2022-08-21T02:57:45;8.23;;;5.15;;
67065;SDS011;53978;43.846;25.952;2022-08-21T03:00:11;7.80;;;5.10;;
67065;SDS011;53978;43.846;25.952;2022-08-21T03:02:38;10.43;;;5.35;;
67065;SDS011;53978;43.846;25.952;2022-08-21T03:05:05;12.70;;;4.90;;
67065;SDS011;53978;43.846;25.952;2022-08-21T03:07:31;9.07;;;5.18;;
67065;SDS011;53978;43.846;25.952;2022-08-21T03:09:57;8.38;;;4.93;;
67065;SDS011;53978;43.846;25.952;2022-08-21T03:12:23;11.35;;;5.18;;
67065;SDS011;53978;43.846;25.952;2022-08-21T03:14:49;7.78;;;4.70;;
67065;SDS011;53978;43.846;25.952;2022-08-21T03:17:14;7.00;;;5.10;;
67065;SDS011;53978;43.846;25.952;2022-08-21T03:19:40;10.38;;;4.80;;
67065;SDS011;53978;43.846;25.952;2022-08-21T03:22:05;8.13;;;4.85;;
67065;SDS011;53978;43.846;25.952;2022-08-21T03:24:31;8.93;;;5.47;;
67065;SDS011;53978;43.846;25.952;2022-08-21T03:26:56;7.38;;;5.28;;
67065;SDS011;53978;43.846;25.952;2022-08-21T03:29:22;8.27;;;5.20;;
67065;SDS011;53978;43.846;25.952;2022-08-21T03:31:47;7.78;;;4.60;;
67065;SDS011;53978;43.846;25.952;2022-08-21T03:34:13;7.00;;;5.00;;
67065;SDS011;53978;43.846;25.952;2022-08-21T03:36:38;10.30;;;5.10;;
67065;SDS011;53978;43.846;25.952;2022-08-21T03:39:04;6.90;;;5.07;;
67065;SDS011;53978;43.846;25.952;2022-08-21T03:41:30;10.40;;;5.28;;
67065;SDS011;53978;43.846;25.952;2022-08-21T03:43:55;10.13;;;5.45;;
67065;SDS011;53978;43.846;25.952;2022-08-21T03:46:21;12.15;;;4.95;;
67065;SDS011;53978;43.846;25.952;2022-08-21T03:48:46;10.20;;;5.07;;
67065;SDS011;53978;43.846;25.952;2022-08-21T03:51:12;11.77;;;5.18;;
67065;SDS011;53978;43.846;25.952;2022-08-21T03:53:37;6.30;;;4.50;;
67065;SDS011;53978;43.846;25.952;2022-08-21T03:56:03;8.00;;;4.82;;
67065;SDS011;53978;43.846;25.952;2022-08-21T03:58:29;9.05;;;4.95;;
67065;SDS011;53978;43.846;25.952;2022-08-21T04:00:56;9.98;;;5.25;;
67065;SDS011;53978;43.846;25.952;2022-08-21T04:03:22;8.40;;;4.93;;
67065;SDS011;53978;43.846;25.952;2022-08-21T04:05:48;13.18;;;5.15;;
67065;SDS011;53978;43.846;25.952;2022-08-21T04:08:14;7.03;;;5.30;;
67065;SDS011;53978;43.846;25.952;2022-08-21T04:10:44;10.13;;;5.18;;
67065;SDS011;53978;43.846;25.952;2022-08-21T04:13:10;9.98;;;5.47;;
67065;SDS011;53978;43.846;25.952;2022-08-21T04:15:36;9.73;;;5.22;;
67065;SDS011;53978;43.846;25.952;2022-08-21T04:18:02;6.25;;;5.20;;
67065;SDS011;53978;43.846;25.952;2022-08-21T04:20:28;6.95;;;4.50;;
67065;SDS011;53978;43.846;25.952;2022-08-21T04:22:54;9.43;;;4.95;;
67065;SDS011;53978;43.846;25.952;2022-08-21T04:25:20;9.93;;;5.30;;
67065;SDS011;53978;43.846;25.952;2022-08-21T04:27:47;10.02;;;5.15;;
67065;SDS011;53978;43.846;25.952;2022-08-21T04:30:13;15.88;;;5.63;;
67065;SDS011;53978;43.846;25.952;2022-08-21T04:32:42;14.23;;;5.38;;
67065;SDS011;53978;43.846;25.952;2022-08-21T04:35:15;12.63;;;5.18;;
67065;SDS011;53978;43.846;25.952;2022-08-21T04:37:43;10.15;;;5.25;;
67065;SDS011;53978;43.846;25.952;2022-08-21T04:40:10;10.40;;;5.20;;
67065;SDS011;53978;43.846;25.952;2022-08-21T04:42:41;9.77;;;4.88;;
67065;SDS011;53978;43.846;25.952;2022-08-21T04:47:42;8.70;;;4.90;;
67065;SDS011;53978;43.846;25.952;2022-08-21T04:50:08;8.07;;;4.85;;
67065;SDS011;53978;43.846;25.952;2022-08-21T04:52:33;8.52;;;4.97;;
67065;SDS011;53978;43.846;25.952;2022-08-21T04:54:59;12.20;;;5.10;;
67065;SDS011;53978;43.846;25.952;2022-08-21T04:57:25;11.85;;;5.15;;
67065;SDS011;53978;43.846;25.952;2022-08-21T04:59:51;13.50;;;5.32;;
67065;SDS011;53978;43.846;25.952;2022-08-21T05:02:17;10.45;;;5.00;;
67065;SDS011;53978;43.846;25.952;2022-08-21T05:04:45;7.53;;;5.03;;
67065;SDS011;53978;43.846;25.952;2022-08-21T05:07:19;8.23;;;4.65;;
67065;SDS011;53978;43.846;25.952;2022-08-21T05:09:46;9.48;;;5.18;;
67065;SDS011;53978;43.846;25.952;2022-08-21T05:12:11;11.55;;;5.43;;
67065;SDS011;53978;43.846;25.952;2022-08-21T05:14:37;12.45;;;5.25;;
67065;SDS011;53978;43.846;25.952;2022-08-21T05:17:03;9.88;;;4.63;;
67065;SDS011;53978;43.846;25.952;2022-08-21T05:19:29;9.65;;;5.43;;
67065;SDS011;53978;43.846;25.952;2022-08-21T05:21:55;6.32;;;4.90;;
67065;SDS011;53978;43.846;25.952;2022-08-21T05:24:20;7.30;;;4.88;;
67065;SDS011;53978;43.846;25.952;2022-08-21T05:26:46;9.02;;;4.65;;
67065;SDS011;53978;43.846;25.952;2022-08-21T05:29:12;12.65;;;5.15;;
67065;SDS011;53978;43.846;25.952;2022-08-21T05:31:39;9.57;;;4.88;;
67065;SDS011;53978;43.846;25.952;2022-08-21T05:34:04;9.57;;;5.07;;
67065;SDS011;53978;43.846;25.952;2022-08-21T05:36:30;8.93;;;4.50;;
67065;SDS011;53978;43.846;25.952;2022-08-21T05:38:55;6.78;;;4.97;;
67065;SDS011;53978;43.846;25.952;2022-08-21T05:41:21;12.48;;;5.05;;
67065;SDS011;53978;43.846;25.952;2022-08-21T05:43:46;7.05;;;4.90;;
67065;SDS011;53978;43.846;25.952;2022-08-21T05:46:12;8.63;;;4.68;;
67065;SDS011;53978;43.846;25.952;2022-08-21T05:48:37;6.05;;;4.55;;
67065;SDS011;53978;43.846;25.952;2022-08-21T05:51:07;8.27;;;5.00;;
67065;SDS011;53978;43.846;25.952;2022-08-21T05:53:38;7.78;;;4.53;;
67065;SDS011;53978;43.846;25.952;2022-08-21T05:56:07;6.05;;;4.85;;
67065;SDS011;53978;43.846;25.952;2022-08-21T05:58:33;12.48;;;5.20;;
67065;SDS011;53978;43.846;25.952;2022-08-21T06:00:59;8.02;;;4.90;;
67065;SDS011;53978;43.846;25.952;2022-08-21T06:03:26;12.68;;;5.90;;
67065;SDS011;53978;43.846;25.952;2022-08-21T06:05:57;8.57;;;5.47;;
67065;SDS011;53978;43.846;25.952;2022-08-21T06:08:23;10.05;;;5.80;;
67065;SDS011;53978;43.846;25.952;2022-08-21T06:10:50;9.82;;;5.82;;
67065;SDS011;53978;43.846;25.952;2022-08-21T06:13:17;10.20;;;5.82;;
67065;SDS011;53978;43.846;25.952;2022-08-21T06:15:43;8.57;;;5.90;;
67065;SDS011;53978;43.846;25.952;2022-08-21T06:18:08;8.50;;;5.10;;
67065;SDS011;53978;43.846;25.952;2022-08-21T06:20:34;9.50;;;5.03;;
67065;SDS011;53978;43.846;25.952;2022-08-21T06:22:59;8.63;;;5.13;;
67065;SDS011;53978;43.846;25.952;2022-08-21T06:25:25;7.28;;;4.90;;
67065;SDS011;53978;43.846;25.952;2022-08-21T06:27:51;8.40;;;4.50;;
67065;SDS011;53978;43.846;25.952;2022-08-21T06:30:17;7.10;;;5.07;;
67065;SDS011;53978;43.846;25.952;2022-08-21T06:32:43;7.43;;;4.75;;
67065;SDS011;53978;43.846;25.952;2022-08-21T06:35:09;8.27;;;4.65;;
67065;SDS011;53978;43.846;25.952;2022-08-21T06:37:34;7.53;;;4.93;;
67065;SDS011;53978;43.846;25.952;2022-08-21T06:40:00;8.85;;;5.00;;
67065;SDS011;53978;43.846;25.952;2022-08-21T06:42:25;10.18;;;4.97;;
67065;SDS011;53978;43.846;25.952;2022-08-21T06:44:52;10.00;;;4.40;;
67065;SDS011;53978;43.846;25.952;2022-08-21T06:47:18;8.07;;;4.60;;
67065;SDS011;53978;43.846;25.952;2022-08-21T06:49:43;8.27;;;4.75;;
67065;SDS011;53978;43.846;25.952;2022-08-21T06:52:09;6.00;;;4.25;;
67065;SDS011;53978;43.846;25.952;2022-08-21T06:54:36;10.10;;;4.40;;
67065;SDS011;53978;43.846;25.952;2022-08-21T06:57:02;10.18;;;4.25;;
67065;SDS011;53978;43.846;25.952;2022-08-21T06:59:27;7.20;;;4.60;;
67065;SDS011;53978;43.846;25.952;2022-08-21T07:01:53;10.30;;;4.35;;
67065;SDS011;53978;43.846;25.952;2022-08-21T07:04:18;7.97;;;4.13;;
67065;SDS011;53978;43.846;25.952;2022-08-21T07:06:44;7.05;;;3.72;;
67065;SDS011;53978;43.846;25.952;2022-08-21T07:09:10;7.15;;;4.60;;
67065;SDS011;53978;43.846;25.952;2022-08-21T07:11:35;8.15;;;3.67;;
67065;SDS011;53978;43.846;25.952;2022-08-21T07:14:02;5.75;;;3.88;;
67065;SDS011;53978;43.846;25.952;2022-08-21T07:16:27;5.95;;;4.05;;
67065;SDS011;53978;43.846;25.952;2022-08-21T07:18:53;8.57;;;4.78;;
67065;SDS011;53978;43.846;25.952;2022-08-21T07:21:19;7.25;;;4.00;;
67065;SDS011;53978;43.846;25.952;2022-08-21T07:23:46;8.65;;;4.47;;
67065;SDS011;53978;43.846;25.952;2022-08-21T07:26:13;10.75;;;3.97;;
67065;SDS011;53978;43.846;25.952;2022-08-21T07:28:40;6.72;;;3.72;;
67065;SDS011;53978;43.846;25.952;2022-08-21T07:31:06;5.35;;;3.80;;
67065;SDS011;53978;43.846;25.952;2022-08-21T07:33:32;8.85;;;4.35;;
67065;SDS011;53978;43.846;25.952;2022-08-21T07:35:58;10.13;;;4.20;;
67065;SDS011;53978;43.846;25.952;2022-08-21T07:38:24;11.57;;;4.35;;
67065;SDS011;53978;43.846;25.952;2022-08-21T07:40:51;6.82;;;3.92;;
67065;SDS011;53978;43.846;25.952;2022-08-21T07:43:18;6.90;;;4.03;;
67065;SDS011;53978;43.846;25.952;2022-08-21T07:45:44;4.80;;;3.95;;
67065;SDS011;53978;43.846;25.952;2022-08-21T07:48:09;10.02;;;4.70;;
67065;SDS011;53978;43.846;25.952;2022-08-21T07:50:35;6.55;;;4.28;;
67065;SDS011;53978;43.846;25.952;2022-08-21T07:53:00;6.22;;;3.67;;
67065;SDS011;53978;43.846;25.952;2022-08-21T07:55:26;6.28;;;4.20;;
67065;SDS011;53978;43.846;25.952;2022-08-21T07:57:51;8.82;;;4.10;;
67065;SDS011;53978;43.846;25.952;2022-08-21T08:00:18;7.45;;;3.95;;
67065;SDS011;53978;43.846;25.952;2022-08-21T08:02:47;5.45;;;4.03;;
67065;SDS011;53978;43.846;25.952;2022-08-21T08:05:20;6.32;;;4.07;;
67065;SDS011;53978;43.846;25.952;2022-08-21T08:07:47;9.88;;;4.07;;
67065;SDS011;53978;43.846;25.952;2022-08-21T08:10:12;11.02;;;4.03;;
67065;SDS011;53978;43.846;25.952;2022-08-21T08:12:39;9.70;;;4.20;;
67065;SDS011;53978;43.846;25.952;2022-08-21T08:15:06;9.75;;;4.20;;
67065;SDS011;53978;43.846;25.952;2022-08-21T08:17:33;10.35;;;3.90;;
67065;SDS011;53978;43.846;25.952;2022-08-21T08:19:58;6.10;;;4.03;;
67065;SDS011;53978;43.846;25.952;2022-08-21T08:22:27;6.03;;;3.75;;
67065;SDS011;53978;43.846;25.952;2022-08-21T08:24:53;7.28;;;4.10;;
67065;SDS011;53978;43.846;25.952;2022-08-21T08:27:19;8.25;;;4.13;;
67065;SDS011;53978;43.846;25.952;2022-08-21T08:29:45;8.93;;;4.35;;
67065;SDS011;53978;43.846;25.952;2022-08-21T08:32:11;9.68;;;4.10;;
67065;SDS011;53978;43.846;25.952;2022-08-21T08:34:36;6.80;;;3.83;;
67065;SDS011;53978;43.846;25.952;2022-08-21T08:37:03;4.60;;;3.55;;
67065;SDS011;53978;43.846;25.952;2022-08-21T08:39:30;5.03;;;4.13;;
67065;SDS011;53978;43.846;25.952;2022-08-21T08:44:32;7.57;;;3.80;;
67065;SDS011;53978;43.846;25.952;2022-08-21T08:46:58;8.48;;;3.90;;
67065;SDS011;53978;43.846;25.952;2022-08-21T08:49:36;5.35;;;4.03;;
67065;SDS011;53978;43.846;25.952;2022-08-21T08:52:05;9.70;;;4.25;;
67065;SDS011;53978;43.846;25.952;2022-08-21T08:54:46;5.72;;;3.72;;
67065;SDS011;53978;43.846;25.952;2022-08-21T08:57:20;6.68;;;3.70;;
67065;SDS011;53978;43.846;25.952;2022-08-21T08:59:48;9.50;;;3.83;;
67065;SDS011;53978;43.846;25.952;2022-08-21T09:02:15;7.10;;;3.63;;
67065;SDS011;53978;43.846;25.952;2022-08-21T09:04:42;5.85;;;3.92;;
67065;SDS011;53978;43.846;25.952;2022-08-21T09:07:12;7.80;;;4.10;;
67065;SDS011;53978;43.846;25.952;2022-08-21T09:10:21;6.47;;;3.55;;
67065;SDS011;53978;43.846;25.952;2022-08-21T09:12:55;6.47;;;3.90;;
67065;SDS011;53978;43.846;25.952;2022-08-21T09:15:37;5.75;;;3.78;;
67065;SDS011;53978;43.846;25.952;2022-08-21T09:27:04;6.95;;;3.90;;
67065;SDS011;53978;43.846;25.952;2022-08-21T09:29:35;8.40;;;4.10;;
67065;SDS011;53978;43.846;25.952;2022-08-21T09:32:03;9.65;;;4.13;;
67065;SDS011;53978;43.846;25.952;2022-08-21T09:37:22;7.20;;;4.20;;
67065;SDS011;53978;43.846;25.952;2022-08-21T09:39:47;8.35;;;3.95;;
67065;SDS011;53978;43.846;25.952;2022-08-21T09:42:21;7.13;;;4.07;;
67065;SDS011;53978;43.846;25.952;2022-08-21T09:44:47;5.85;;;3.80;;
67065;SDS011;53978;43.846;25.952;2022-08-21T09:47:13;5.55;;;4.00;;
67065;SDS011;53978;43.846;25.952;2022-08-21T09:49:40;8.88;;;3.90;;
67065;SDS011;53978;43.846;25.952;2022-08-21T09:52:12;6.90;;;4.03;;
67065;SDS011;53978;43.846;25.952;2022-08-21T09:54:41;4.78;;;3.50;;
67065;SDS011;53978;43.846;25.952;2022-08-21T09:59:54;6.38;;;4.28;;
67065;SDS011;53978;43.846;25.952;2022-08-21T10:02:53;8.35;;;4.00;;
67065;SDS011;53978;43.846;25.952;2022-08-21T10:05:16;8.18;;;3.75;;
67065;SDS011;53978;43.846;25.952;2022-08-21T10:07:44;8.47;;;3.80;;
67065;SDS011;53978;43.846;25.952;2022-08-21T10:10:15;8.35;;;4.05;;
67065;SDS011;53978;43.846;25.952;2022-08-21T10:20:38;10.32;;;4.32;;
67065;SDS011;53978;43.846;25.952;2022-08-21T10:47:47;8.57;;;4.03;;
67065;SDS011;53978;43.846;25.952;2022-08-21T10:55:52;6.45;;;3.67;;
67065;SDS011;53978;43.846;25.952;2022-08-21T10:58:38;7.50;;;3.50;;
67065;SDS011;53978;43.846;25.952;2022-08-21T11:01:12;8.13;;;4.00;;
67065;SDS011;53978;43.846;25.952;2022-08-21T11:04:04;5.07;;;3.72;;
67065;SDS011;53978;43.846;25.952;2022-08-21T11:06:34;5.20;;;4.03;;
67065;SDS011;53978;43.846;25.952;2022-08-21T11:09:22;5.25;;;3.67;;
67065;SDS011;53978;43.846;25.952;2022-08-21T11:14:21;8.95;;;4.10;;
67065;SDS011;53978;43.846;25.952;2022-08-21T11:17:11;6.78;;;3.60;;
67065;SDS011;53978;43.846;25.952;2022-08-21T11:19:41;9.05;;;3.70;;
67065;SDS011;53978;43.846;25.952;2022-08-21T11:22:15;5.97;;;3.78;;
67065;SDS011;53978;43.846;25.952;2022-08-21T11:24:55;6.78;;;3.70;;
67065;SDS011;53978;43.846;25.952;2022-08-21T11:27:24;11.13;;;3.80;;
67065;SDS011;53978;43.846;25.952;2022-08-21T11:30:11;6.88;;;3.90;;
67065;SDS011;53978;43.846;25.952;2022-08-21T11:45:56;7.55;;;3.75;;
67065;SDS011;53978;43.846;25.952;2022-08-21T11:48:48;6.72;;;3.95;;
67065;SDS011;53978;43.846;25.952;2022-08-21T11:51:33;10.63;;;4.28;;
67065;SDS011;53978;43.846;25.952;2022-08-21T11:57:29;6.63;;;3.80;;
67065;SDS011;53978;43.846;25.952;2022-08-21T12:02:32;7.40;;;4.00;;
67065;SDS011;53978;43.846;25.952;2022-08-21T12:05:02;7.60;;;3.72;;
67065;SDS011;53978;43.846;25.952;2022-08-21T12:07:37;9.68;;;3.97;;
67065;SDS011;53978;43.846;25.952;2022-08-21T12:10:08;8.18;;;4.10;;
67065;SDS011;53978;43.846;25.952;2022-08-21T12:12:37;8.07;;;4.10;;
67065;SDS011;53978;43.846;25.952;2022-08-21T12:15:23;9.00;;;4.20;;
67065;SDS011;53978;43.846;25.952;2022-08-21T12:18:03;5.30;;;4.05;;
67065;SDS011;53978;43.846;25.952;2022-08-21T12:20:35;7.28;;;4.15;;
67065;SDS011;53978;43.846;25.952;2022-08-21T12:25:39;7.03;;;3.45;;
67065;SDS011;53978;43.846;25.952;2022-08-21T12:28:11;4.90;;;3.65;;
67065;SDS011;53978;43.846;25.952;2022-08-21T12:30:42;12.85;;;3.33;;
67065;SDS011;53978;43.846;25.952;2022-08-21T12:36:01;6.60;;;3.10;;
67065;SDS011;53978;43.846;25.952;2022-08-21T12:38:33;3.70;;;3.00;;
67065;SDS011;53978;43.846;25.952;2022-08-21T12:41:25;10.65;;;3.50;;
67065;SDS011;53978;43.846;25.952;2022-08-21T12:44:00;5.43;;;3.50;;
67065;SDS011;53978;43.846;25.952;2022-08-21T12:46:32;7.57;;;3.50;;
67065;SDS011;53978;43.846;25.952;2022-08-21T12:49:02;5.97;;;3.42;;
67065;SDS011;53978;43.846;25.952;2022-08-21T12:51:42;3.70;;;3.10;;
67065;SDS011;53978;43.846;25.952;2022-08-21T12:54:32;5.82;;;3.00;;
67065;SDS011;53978;43.846;25.952;2022-08-21T12:57:04;7.35;;;3.40;;
67065;SDS011;53978;43.846;25.952;2022-08-21T12:59:31;8.00;;;3.08;;
67065;SDS011;53978;43.846;25.952;2022-08-21T13:01:58;6.53;;;3.45;;
67065;SDS011;53978;43.846;25.952;2022-08-21T13:04:27;7.55;;;3.10;;
67065;SDS011;53978;43.846;25.952;2022-08-21T13:07:08;5.45;;;3.22;;
67065;SDS011;53978;43.846;25.952;2022-08-21T13:09:39;6.28;;;3.15;;
67065;SDS011;53978;43.846;25.952;2022-08-21T13:12:09;9.52;;;3.60;;
67065;SDS011;53978;43.846;25.952;2022-08-21T13:14:36;7.85;;;3.70;;
67065;SDS011;53978;43.846;25.952;2022-08-21T13:17:04;4.03;;;3.47;;
67065;SDS011;53978;43.846;25.952;2022-08-21T13:19:31;8.27;;;3.33;;
67065;SDS011;53978;43.846;25.952;2022-08-21T13:21:59;10.93;;;3.30;;
67065;SDS011;53978;43.846;25.952;2022-08-21T13:24:26;4.80;;;2.90;;
67065;SDS011;53978;43.846;25.952;2022-08-21T13:26:54;8.68;;;2.90;;
67065;SDS011;53978;43.846;25.952;2022-08-21T13:29:23;9.00;;;3.35;;
67065;SDS011;53978;43.846;25.952;2022-08-21T13:34:30;6.88;;;3.40;;
67065;SDS011;53978;43.846;25.952;2022-08-21T13:36:59;7.28;;;3.22;;
67065;SDS011;53978;43.846;25.952;2022-08-21T13:39:27;7.68;;;3.58;;
67065;SDS011;53978;43.846;25.952;2022-08-21T13:41:54;5.55;;;3.00;;
67065;SDS011;53978;43.846;25.952;2022-08-21T13:44:22;8.23;;;3.60;;
67065;SDS011;53978;43.846;25.952;2022-08-21T13:47:09;6.65;;;3.30;;
67065;SDS011;53978;43.846;25.952;2022-08-21T13:49:40;7.90;;;3.50;;
67065;SDS011;53978;43.846;25.952;2022-08-21T13:52:25;11.05;;;3.47;;
67065;SDS011;53978;43.846;25.952;2022-08-21T13:54:58;8.85;;;4.85;;
67065;SDS011;53978;43.846;25.952;2022-08-21T13:57:27;9.43;;;3.90;;
67065;SDS011;53978;43.846;25.952;2022-08-21T14:00:19;7.75;;;3.90;;
67065;SDS011;53978;43.846;25.952;2022-08-21T14:02:50;6.10;;;3.90;;
67065;SDS011;53978;43.846;25.952;2022-08-21T14:05:21;8.95;;;4.20;;
67065;SDS011;53978;43.846;25.952;2022-08-21T14:07:50;4.88;;;3.42;;
67065;SDS011;53978;43.846;25.952;2022-08-21T14:10:29;6.47;;;3.78;;
67065;SDS011;53978;43.846;25.952;2022-08-21T14:12:57;4.40;;;3.53;;
67065;SDS011;53978;43.846;25.952;2022-08-21T14:15:27;6.85;;;3.10;;
67065;SDS011;53978;43.846;25.952;2022-08-21T14:17:54;5.03;;;3.13;;
67065;SDS011;53978;43.846;25.952;2022-08-21T14:20:33;5.38;;;3.08;;
67065;SDS011;53978;43.846;25.952;2022-08-21T14:22:59;7.22;;;3.33;;
67065;SDS011;53978;43.846;25.952;2022-08-21T14:27:51;5.25;;;3.78;;
67065;SDS011;53978;43.846;25.952;2022-08-21T14:32:47;6.70;;;3.80;;
67065;SDS011;53978;43.846;25.952;2022-08-21T14:35:13;4.38;;;3.55;;
67065;SDS011;53978;43.846;25.952;2022-08-21T14:37:42;6.47;;;3.67;;
67065;SDS011;53978;43.846;25.952;2022-08-21T14:40:08;6.70;;;3.45;;
67065;SDS011;53978;43.846;25.952;2022-08-21T14:42:34;6.13;;;3.40;;
67065;SDS011;53978;43.846;25.952;2022-08-21T14:45:01;8.07;;;3.63;;
67065;SDS011;53978;43.846;25.952;2022-08-21T14:47:38;7.68;;;3.03;;
67065;SDS011;53978;43.846;25.952;2022-08-21T14:50:04;5.45;;;3.15;;
67065;SDS011;53978;43.846;25.952;2022-08-21T14:52:30;4.78;;;2.90;;
67065;SDS011;53978;43.846;25.952;2022-08-21T14:54:55;5.50;;;3.20;;
67065;SDS011;53978;43.846;25.952;2022-08-21T14:57:21;5.07;;;3.25;;
67065;SDS011;53978;43.846;25.952;2022-08-21T14:59:54;7.80;;;3.28;;
67065;SDS011;53978;43.846;25.952;2022-08-21T15:02:19;7.47;;;3.00;;
67065;SDS011;53978;43.846;25.952;2022-08-21T15:04:45;4.13;;;3.08;;
67065;SDS011;53978;43.846;25.952;2022-08-21T15:07:10;9.23;;;3.28;;
67065;SDS011;53978;43.846;25.952;2022-08-21T15:09:36;6.97;;;3.20;;
67065;SDS011;53978;43.846;25.952;2022-08-21T15:12:02;5.07;;;3.20;;
67065;SDS011;53978;43.846;25.952;2022-08-21T15:14:29;5.45;;;3.55;;
67065;SDS011;53978;43.846;25.952;2022-08-21T15:16:56;4.20;;;3.00;;
67065;SDS011;53978;43.846;25.952;2022-08-21T15:19:21;5.45;;;3.10;;
67065;SDS011;53978;43.846;25.952;2022-08-21T15:21:47;4.40;;;3.50;;
67065;SDS011;53978;43.846;25.952;2022-08-21T15:24:13;3.30;;;3.00;;
67065;SDS011;53978;43.846;25.952;2022-08-21T15:26:38;5.93;;;2.92;;
67065;SDS011;53978;43.846;25.952;2022-08-21T15:29:04;4.93;;;3.05;;
67065;SDS011;53978;43.846;25.952;2022-08-21T15:31:31;6.32;;;3.00;;
67065;SDS011;53978;43.846;25.952;2022-08-21T15:33:57;5.22;;;3.40;;
67065;SDS011;53978;43.846;25.952;2022-08-21T15:36:22;9.05;;;3.25;;
67065;SDS011;53978;43.846;25.952;2022-08-21T15:38:48;8.43;;;3.28;;
67065;SDS011;53978;43.846;25.952;2022-08-21T15:41:14;18.13;;;3.83;;
67065;SDS011;53978;43.846;25.952;2022-08-21T15:43:44;7.53;;;3.35;;
67065;SDS011;53978;43.846;25.952;2022-08-21T15:46:12;9.20;;;3.53;;
67065;SDS011;53978;43.846;25.952;2022-08-21T15:48:39;9.50;;;3.50;;
67065;SDS011;53978;43.846;25.952;2022-08-21T15:51:04;5.47;;;3.40;;
67065;SDS011;53978;43.846;25.952;2022-08-21T15:53:30;8.88;;;3.00;;
67065;SDS011;53978;43.846;25.952;2022-08-21T15:56:00;8.60;;;3.30;;
67065;SDS011;53978;43.846;25.952;2022-08-21T15:58:25;8.68;;;3.50;;
67065;SDS011;53978;43.846;25.952;2022-08-21T16:00:51;6.95;;;3.22;;
67065;SDS011;53978;43.846;25.952;2022-08-21T16:03:17;7.13;;;3.47;;
67065;SDS011;53978;43.846;25.952;2022-08-21T16:05:46;6.68;;;3.30;;
67065;SDS011;53978;43.846;25.952;2022-08-21T16:08:14;5.78;;;3.58;;
67065;SDS011;53978;43.846;25.952;2022-08-21T16:10:39;5.63;;;3.80;;
67065;SDS011;53978;43.846;25.952;2022-08-21T16:13:07;5.20;;;3.30;;
67065;SDS011;53978;43.846;25.952;2022-08-21T16:15:39;9.90;;;3.70;;